Time;durP1;ratioP1;P1;durP2;ratioP2;P2;SDS_P1;SDS_P2;PMS_P1;PMS_P2;Temp;Humidity;BMP_temperature;BMP_pressure;BME280_temperature;BME280_humidity;BME280_pressure;Samples;Min_cycle;Max_cycle;Signal;HPM_P1;HPM_P2
2023/04/19 00:01:05;;;;;;;;;;;11.40;77.40;;;;;;5080634;28;19932;-67
2023/04/19 00:03:33;;;;;;;;;;;11.30;77.40;;;;;;5082879;28;19931;-68
2023/04/19 00:06:00;;;;;;;;;;;11.40;77.40;;;;;;5082902;28;19928;-67
2023/04/19 00:08:26;;;;;;;;;;;11.40;77.40;;;;;;5081735;28;19947;-67
2023/04/19 00:10:53;;;;;;;;;;;11.30;77.60;;;;;;5075259;28;20352;-67
2023/04/19 00:13:20;;;;;;;;;;;11.30;78.00;;;;;;5058625;28;19928;-67
2023/04/19 00:15:47;;;;;;;;;;;11.30;77.90;;;;;;5079614;28;19946;-67
2023/04/19 00:18:14;;;;;;;;;;;11.30;78.00;;;;;;5072597;28;19932;-67
2023/04/19 00:20:43;;;;;;;;;;;11.30;78.00;;;;;;5070399;28;19936;-68
2023/04/19 00:23:09;;;;;;;;;;;11.30;78.10;;;;;;5069122;28;20276;-66
2023/04/19 00:25:36;;;;;;;;;;;11.30;78.10;;;;;;5071386;28;19937;-66
2023/04/19 00:28:04;;;;;;;;;;;11.30;78.20;;;;;;5070285;28;19956;-68
2023/04/19 00:30:30;;;;;;;;;;;11.30;78.10;;;;;;5071751;28;19978;-67
2023/04/19 00:32:58;;;;;;;;;;;11.30;78.30;;;;;;5044767;28;20024;-67
2023/04/19 00:35:24;;;;;;;;;;;11.30;78.40;;;;;;5068633;28;20020;-68
2023/04/19 00:37:53;;;;;;;;;;;11.30;78.20;;;;;;5043160;28;19933;-67
2023/04/19 00:40:20;;;;;;;;;;;11.30;78.20;;;;;;5060695;28;19929;-67
2023/04/19 00:42:47;;;;;;;;;;;11.30;78.40;;;;;;5070786;28;20002;-68
2023/04/19 00:45:14;;;;;;;;;;;11.20;78.50;;;;;;5053704;28;19935;-67
2023/04/19 00:47:53;;;;;;;;;;;11.30;78.50;;;;;;5048777;28;20298;-68
2023/04/19 00:50:20;;;;;;;;;;;11.20;78.60;;;;;;5069686;28;19924;-68
2023/04/19 00:52:47;;;;;;;;;;;11.30;78.60;;;;;;5053374;28;19929;-70
2023/04/19 00:55:15;;;;;;;;;;;11.20;78.60;;;;;;5068093;28;20380;-67
2023/04/19 00:57:43;;;;;;;;;;;11.30;78.60;;;;;;5070846;28;19924;-67
2023/04/19 01:00:10;;;;;;;;;;;11.30;78.60;;;;;;5071632;28;19931;-67
2023/04/19 01:02:37;;;;;;;;;;;11.20;78.80;;;;;;5049698;28;19928;-67
2023/04/19 01:05:04;;;;;;;;;;;11.20;78.60;;;;;;5068098;28;19936;-67
2023/04/19 01:07:33;;;;;;;;;;;11.20;78.70;;;;;;5070348;28;20051;-68
2023/04/19 01:09:59;;;;;;;;;;;11.20;79.00;;;;;;5067779;28;19924;-67
2023/04/19 01:12:27;;;;;;;;;;;11.20;79.00;;;;;;5071423;28;19971;-69
2023/04/19 01:14:54;;;;;;;;;;;11.20;79.10;;;;;;5049588;28;19928;-68
2023/04/19 01:17:21;;;;;;;;;;;11.20;79.10;;;;;;5070361;28;20276;-68
2023/04/19 01:19:48;;;;;;;;;;;11.20;79.10;;;;;;5070146;28;20345;-67
2023/04/19 01:22:19;;;;;;;;;;;11.20;79.30;;;;;;5070352;28;20742;-68
2023/04/19 01:24:46;;;;;;;;;;;11.20;79.50;;;;;;5071505;28;19955;-65
2023/04/19 01:27:12;;;;;;;;;;;11.20;79.40;;;;;;5064996;28;19928;-68
2023/04/19 01:29:39;;;;;;;;;;;11.20;79.30;;;;;;5069486;28;19973;-66
2023/04/19 01:32:06;;;;;;;;;;;11.20;79.30;;;;;;5062476;28;20026;-67
2023/04/19 01:34:33;;;;;;;;;;;11.20;79.30;;;;;;5067058;28;19928;-67
2023/04/19 01:37:00;;;;;;;;;;;11.20;79.40;;;;;;5065124;28;19928;-67
2023/04/19 01:39:28;;;;;;;;;;;11.20;79.40;;;;;;5067432;28;20007;-67
2023/04/19 01:41:54;;;;;;;;;;;11.20;79.40;;;;;;5070418;28;19928;-68
2023/04/19 01:44:21;;;;;;;;;;;11.20;79.40;;;;;;5069819;28;19998;-67
2023/04/19 01:46:48;;;;;;;;;;;11.20;79.40;;;;;;5052000;28;19986;-67
2023/04/19 01:49:15;;;;;;;;;;;11.20;79.50;;;;;;5068484;28;19931;-67
2023/04/19 01:51:42;;;;;;;;;;;11.10;79.40;;;;;;5070215;28;19924;-67
2023/04/19 01:54:09;;;;;;;;;;;11.20;79.40;;;;;;5069601;28;19936;-67
2023/04/19 01:56:37;;;;;;;;;;;11.10;79.60;;;;;;5052837;28;19932;-68
2023/04/19 01:59:04;;;;;;;;;;;11.10;79.70;;;;;;5047361;28;19931;-68
2023/04/19 02:01:31;;;;;;;;;;;11.10;79.70;;;;;;5045024;28;19932;-68
2023/04/19 02:03:58;;;;;;;;;;;11.20;79.40;;;;;;5069434;28;20421;-67
2023/04/19 02:06:26;;;;;;;;;;;11.20;79.60;;;;;;5069902;28;20316;-67
2023/04/19 02:08:53;;;;;;;;;;;11.20;79.60;;;;;;5049808;28;19932;-67
2023/04/19 02:11:20;;;;;;;;;;;11.20;79.70;;;;;;5051836;28;19925;-67
2023/04/19 02:13:48;;;;;;;;;;;11.10;79.70;;;;;;5051144;28;20299;-68
2023/04/19 02:16:15;;;;;;;;;;;11.10;79.90;;;;;;5044395;28;19939;-66
2023/04/19 02:18:42;;;;;;;;;;;11.20;80.00;;;;;;5050607;28;19928;-67
2023/04/19 02:21:09;;;;;;;;;;;11.20;79.70;;;;;;5051076;28;19940;-67
2023/04/19 02:23:36;;;;;;;;;;;11.20;79.90;;;;;;5050917;28;19936;-67
2023/04/19 02:26:03;;;;;;;;;;;11.20;80.20;;;;;;5046136;28;19951;-67
2023/04/19 02:28:29;;;;;;;;;;;11.10;80.00;;;;;;5069455;28;19932;-67
2023/04/19 02:30:57;;;;;;;;;;;11.10;80.10;;;;;;5068985;28;19990;-68
2023/04/19 02:33:25;;;;;;;;;;;11.20;80.10;;;;;;5067611;28;20002;-68
2023/04/19 02:35:52;;;;;;;;;;;11.10;80.30;;;;;;5069340;28;19924;-65
2023/04/19 02:38:19;;;;;;;;;;;11.10;80.40;;;;;;5068135;28;19932;-68
2023/04/19 02:40:52;;;;;;;;;;;11.10;80.30;;;;;;5073261;28;19932;-66
2023/04/19 02:43:19;;;;;;;;;;;11.10;80.30;;;;;;5074302;28;19925;-67
2023/04/19 02:45:46;;;;;;;;;;;11.10;80.10;;;;;;5071118;28;19957;-67
2023/04/19 02:48:24;;;;;;;;;;;11.10;80.30;;;;;;5068702;28;19931;-67
2023/04/19 02:50:54;;;;;;;;;;;11.10;80.40;;;;;;5054479;28;20020;-66
2023/04/19 02:53:27;;;;;;;;;;;11.10;80.40;;;;;;5051169;28;19960;-67
2023/04/19 02:55:55;;;;;;;;;;;11.10;80.20;;;;;;5049291;28;19985;-65
2023/04/19 02:58:21;;;;;;;;;;;11.10;80.20;;;;;;5065592;28;19928;-67
2023/04/19 03:01:00;;;;;;;;;;;11.10;80.50;;;;;;5044794;28;19925;-67
2023/04/19 03:03:28;;;;;;;;;;;11.10;80.50;;;;;;5046688;28;19928;-67
2023/04/19 03:05:55;;;;;;;;;;;11.10;80.60;;;;;;5043012;28;20433;-68
2023/04/19 03:08:22;;;;;;;;;;;11.10;80.80;;;;;;5049890;28;19925;-67
2023/04/19 03:10:49;;;;;;;;;;;11.10;80.90;;;;;;5051101;28;19924;-67
2023/04/19 03:13:16;;;;;;;;;;;11.10;80.90;;;;;;5052256;28;19956;-67
2023/04/19 03:15:42;;;;;;;;;;;11.10;80.90;;;;;;5071807;28;19935;-68
2023/04/19 03:18:10;;;;;;;;;;;11.10;80.70;;;;;;5071047;28;19929;-67
2023/04/19 03:20:39;;;;;;;;;;;11.10;80.60;;;;;;5055615;28;19924;-67
2023/04/19 03:23:06;;;;;;;;;;;11.10;80.70;;;;;;5054532;28;20279;-66
2023/04/19 03:25:33;;;;;;;;;;;11.10;81.00;;;;;;5053961;28;19924;-67
2023/04/19 03:28:14;;;;;;;;;;;11.00;81.10;;;;;;5049240;28;20033;-68
2023/04/19 03:30:59;;;;;;;;;;;11.00;81.20;;;;;;5072233;28;19955;-68
2023/04/19 03:33:26;;;;;;;;;;;11.00;81.40;;;;;;5070916;28;19925;-66
2023/04/19 03:35:55;;;;;;;;;;;11.00;81.40;;;;;;5048275;28;19933;-67
2023/04/19 03:38:22;;;;;;;;;;;11.00;81.30;;;;;;5048426;28;20019;-67
2023/04/19 03:40:50;;;;;;;;;;;11.10;81.30;;;;;;5051247;28;20011;-68
2023/04/19 03:43:17;;;;;;;;;;;11.00;81.40;;;;;;5052883;28;19932;-68
2023/04/19 03:45:44;;;;;;;;;;;11.00;81.30;;;;;;5043734;28;19925;-67
2023/04/19 03:48:11;;;;;;;;;;;11.10;81.20;;;;;;5052093;28;20414;-68
2023/04/19 03:50:39;;;;;;;;;;;11.10;81.30;;;;;;5052693;28;20433;-67
2023/04/19 03:53:07;;;;;;;;;;;11.10;81.30;;;;;;5049132;28;19928;-67
2023/04/19 03:55:34;;;;;;;;;;;11.10;81.30;;;;;;5054725;28;19928;-68
2023/04/19 03:58:01;;;;;;;;;;;11.00;81.40;;;;;;5070176;28;19929;-67
2023/04/19 04:00:36;;;;;;;;;;;11.10;81.30;;;;;;5068579;28;19925;-68
2023/04/19 04:03:03;;;;;;;;;;;11.10;81.30;;;;;;5067040;28;19982;-67
2023/04/19 04:05:30;;;;;;;;;;;11.00;81.50;;;;;;5054579;28;19933;-68
2023/04/19 04:07:57;;;;;;;;;;;11.00;81.50;;;;;;5070865;28;19932;-68
2023/04/19 04:10:26;;;;;;;;;;;11.00;81.30;;;;;;5053214;28;19928;-68
2023/04/19 04:12:53;;;;;;;;;;;11.00;81.30;;;;;;5069100;28;19925;-67
2023/04/19 04:15:26;;;;;;;;;;;11.00;81.60;;;;;;5048891;28;19947;-68
2023/04/19 04:17:54;;;;;;;;;;;11.00;81.40;;;;;;5053804;28;19933;-67
2023/04/19 04:20:21;;;;;;;;;;;11.00;81.50;;;;;;5045734;28;20358;-67
2023/04/19 04:22:49;;;;;;;;;;;11.00;81.50;;;;;;5051801;28;19937;-68
2023/04/19 04:25:18;;;;;;;;;;;11.00;81.40;;;;;;5048551;28;19925;-68
2023/04/19 04:27:47;;;;;;;;;;;11.00;81.30;;;;;;5068241;28;19925;-68
2023/04/19 04:30:18;;;;;;;;;;;10.90;81.20;;;;;;5052151;28;20025;-69
2023/04/19 04:32:46;;;;;;;;;;;10.90;81.10;;;;;;5050677;28;19929;-69
2023/04/19 04:35:13;;;;;;;;;;;10.90;80.70;;;;;;5054532;28;20011;-68
2023/04/19 04:38:00;;;;;;;;;;;10.90;80.60;;;;;;5069575;28;19982;-68
2023/04/19 04:40:26;;;;;;;;;;;10.90;80.30;;;;;;5069714;28;20409;-67
2023/04/19 04:42:55;;;;;;;;;;;10.90;80.30;;;;;;5047279;28;20256;-68
2023/04/19 04:45:22;;;;;;;;;;;10.90;80.10;;;;;;5051634;28;19928;-67
2023/04/19 04:47:50;;;;;;;;;;;10.90;79.80;;;;;;5051643;28;19955;-68
2023/04/19 04:50:17;;;;;;;;;;;10.90;79.80;;;;;;5047513;28;20326;-67
2023/04/19 04:52:45;;;;;;;;;;;10.90;79.50;;;;;;5069151;28;19983;-67
2023/04/19 04:55:17;;;;;;;;;;;10.90;79.50;;;;;;5070526;28;20398;-67
2023/04/19 04:57:44;;;;;;;;;;;10.90;79.50;;;;;;5053709;28;19928;-67
2023/04/19 05:00:21;;;;;;;;;;;10.90;79.40;;;;;;5048376;28;19952;-67
2023/04/19 05:02:57;;;;;;;;;;;10.90;79.30;;;;;;5048170;28;20050;-67
2023/04/19 05:05:24;;;;;;;;;;;10.90;79.30;;;;;;5069380;28;19944;-67
2023/04/19 05:07:50;;;;;;;;;;;10.90;79.30;;;;;;5066201;28;19932;-67
2023/04/19 05:10:17;;;;;;;;;;;10.90;79.30;;;;;;5047564;28;19998;-67
2023/04/19 05:12:45;;;;;;;;;;;10.90;79.20;;;;;;5050646;28;19982;-68
2023/04/19 05:15:12;;;;;;;;;;;10.90;79.30;;;;;;5052021;28;20023;-67
2023/04/19 05:17:45;;;;;;;;;;;10.80;79.40;;;;;;5052946;28;19952;-68
2023/04/19 05:20:13;;;;;;;;;;;10.80;79.40;;;;;;5052416;28;19932;-68
2023/04/19 05:22:40;;;;;;;;;;;10.80;79.40;;;;;;5052879;28;19925;-66
2023/04/19 05:25:10;;;;;;;;;;;10.80;79.20;;;;;;5048017;28;19936;-67
2023/04/19 05:27:37;;;;;;;;;;;10.80;79.10;;;;;;5069478;28;19928;-67
2023/04/19 05:30:04;;;;;;;;;;;10.90;78.90;;;;;;5052049;28;19951;-69
2023/04/19 05:32:31;;;;;;;;;;;10.80;78.80;;;;;;5051681;28;19977;-68
2023/04/19 05:35:00;;;;;;;;;;;10.90;78.60;;;;;;5050915;28;19938;-68
2023/04/19 05:37:29;;;;;;;;;;;10.80;78.30;;;;;;5047082;28;19975;-68
2023/04/19 05:39:57;;;;;;;;;;;10.80;78.20;;;;;;5048263;28;19931;-66
2023/04/19 05:42:25;;;;;;;;;;;10.80;78.10;;;;;;5052661;28;19929;-68
2023/04/19 05:44:51;;;;;;;;;;;10.90;77.90;;;;;;5051383;28;19924;-67
2023/04/19 05:47:19;;;;;;;;;;;10.90;77.50;;;;;;5045598;28;19928;-68
2023/04/19 05:50:08;;;;;;;;;;;10.80;77.00;;;;;;5038721;28;19924;-68
2023/04/19 05:52:38;;;;;;;;;;;10.90;76.50;;;;;;5051610;28;19972;-67
2023/04/19 05:55:05;;;;;;;;;;;10.80;76.00;;;;;;5051799;28;19925;-68
2023/04/19 05:57:34;;;;;;;;;;;10.80;75.50;;;;;;5052223;28;20295;-67
2023/04/19 06:00:00;;;;;;;;;;;10.80;75.30;;;;;;5049020;28;20359;-67
2023/04/19 06:02:40;;;;;;;;;;;10.80;74.90;;;;;;5066630;28;19928;-68
2023/04/19 06:05:10;;;;;;;;;;;10.70;74.90;;;;;;5043857;28;19928;-68
2023/04/19 06:07:36;;;;;;;;;;;10.70;75.40;;;;;;5050217;28;19928;-66
2023/04/19 06:10:05;;;;;;;;;;;10.70;75.00;;;;;;5048577;28;19972;-67
2023/04/19 06:12:32;;;;;;;;;;;10.80;74.70;;;;;;5069470;28;20284;-67
2023/04/19 06:14:59;;;;;;;;;;;10.80;74.30;;;;;;5050899;28;20031;-68
2023/04/19 06:17:26;;;;;;;;;;;10.70;74.20;;;;;;5047974;28;19924;-67
2023/04/19 06:19:53;;;;;;;;;;;10.80;73.80;;;;;;5060387;28;20399;-68
2023/04/19 06:22:21;;;;;;;;;;;10.90;74.50;;;;;;5070336;28;19940;-67
2023/04/19 06:24:48;;;;;;;;;;;10.80;74.00;;;;;;5045269;28;19963;-68
2023/04/19 06:27:16;;;;;;;;;;;10.90;73.80;;;;;;5069998;28;20402;-67
2023/04/19 06:29:42;;;;;;;;;;;10.90;73.80;;;;;;5066889;28;19924;-67
2023/04/19 06:32:09;;;;;;;;;;;10.90;74.00;;;;;;5066377;28;19962;-67
2023/04/19 06:34:36;;;;;;;;;;;10.90;73.70;;;;;;5064763;28;19929;-66
2023/04/19 06:37:03;;;;;;;;;;;11.00;73.70;;;;;;5061138;28;19931;-67
2023/04/19 06:39:31;;;;;;;;;;;11.00;73.60;;;;;;5066045;28;20371;-67
2023/04/19 06:41:57;;;;;;;;;;;11.00;73.50;;;;;;5070053;28;19925;-67
2023/04/19 06:44:24;;;;;;;;;;;11.00;73.40;;;;;;5067891;28;19982;-68
2023/04/19 06:46:51;;;;;;;;;;;11.10;73.50;;;;;;5061580;28;19979;-67
2023/04/19 06:49:18;;;;;;;;;;;11.10;73.30;;;;;;5068036;28;19932;-68
2023/04/19 06:51:45;;;;;;;;;;;11.10;72.80;;;;;;5070120;28;20021;-67
2023/04/19 06:54:12;;;;;;;;;;;11.10;72.80;;;;;;5066778;28;19932;-66
2023/04/19 06:56:44;;;;;;;;;;;11.20;72.80;;;;;;5071517;28;19950;-68
2023/04/19 06:59:11;;;;;;;;;;;11.20;72.20;;;;;;5067110;28;20190;-67
2023/04/19 07:01:38;;;;;;;;;;;11.30;72.00;;;;;;5067767;28;19936;-67
2023/04/19 07:04:05;;;;;;;;;;;11.30;71.90;;;;;;5067456;28;20044;-68
2023/04/19 07:06:31;;;;;;;;;;;11.40;71.70;;;;;;5064838;28;20027;-68
2023/04/19 07:08:58;;;;;;;;;;;11.30;71.50;;;;;;5065778;28;19955;-66
2023/04/19 07:11:25;;;;;;;;;;;11.40;71.00;;;;;;5068103;28;20405;-67
2023/04/19 07:13:53;;;;;;;;;;;11.40;70.90;;;;;;5067768;28;19928;-68
2023/04/19 07:16:20;;;;;;;;;;;11.40;70.70;;;;;;5071682;28;20015;-68
2023/04/19 07:18:47;;;;;;;;;;;11.50;70.10;;;;;;5067829;28;19932;-68
2023/04/19 07:21:14;;;;;;;;;;;11.50;70.40;;;;;;5070491;28;20022;-67
2023/04/19 07:23:41;;;;;;;;;;;11.60;69.60;;;;;;5068301;28;19945;-66
2023/04/19 07:26:08;;;;;;;;;;;11.70;68.80;;;;;;5068400;28;19924;-67
2023/04/19 07:28:35;;;;;;;;;;;11.70;68.80;;;;;;5065448;28;19939;-67
2023/04/19 07:31:03;;;;;;;;;;;11.80;67.80;;;;;;5067498;28;19924;-68
2023/04/19 07:33:31;;;;;;;;;;;11.80;67.60;;;;;;5067755;28;19979;-68
2023/04/19 07:35:57;;;;;;;;;;;11.90;67.20;;;;;;5067381;28;19935;-67
2023/04/19 07:38:24;;;;;;;;;;;12.00;66.70;;;;;;5068188;28;19928;-69
2023/04/19 07:40:51;;;;;;;;;;;12.20;66.20;;;;;;5069890;28;19940;-67
2023/04/19 07:43:18;;;;;;;;;;;12.30;66.20;;;;;;5067962;28;19931;-67
2023/04/19 07:45:44;;;;;;;;;;;12.50;65.70;;;;;;5069368;28;20263;-67
2023/04/19 07:48:12;;;;;;;;;;;12.60;65.60;;;;;;5068596;28;19928;-68
2023/04/19 07:50:39;;;;;;;;;;;12.60;65.20;;;;;;5065718;28;19952;-68
2023/04/19 07:53:06;;;;;;;;;;;12.70;64.80;;;;;;5070377;28;19978;-68
2023/04/19 07:55:33;;;;;;;;;;;12.90;64.70;;;;;;5066897;28;19924;-69
2023/04/19 07:58:00;;;;;;;;;;;13.10;64.40;;;;;;5066679;28;19981;-68
2023/04/19 08:00:28;;;;;;;;;;;13.10;64.40;;;;;;5067091;28;19940;-63
2023/04/19 08:02:56;;;;;;;;;;;13.20;63.80;;;;;;5059914;28;19933;-64
2023/04/19 08:05:25;;;;;;;;;;;13.30;63.70;;;;;;5066552;28;19978;-64
2023/04/19 08:07:52;;;;;;;;;;;13.50;63.50;;;;;;5065131;28;19932;-66
2023/04/19 08:10:20;;;;;;;;;;;13.60;63.20;;;;;;5070171;28;19935;-64
2023/04/19 08:12:46;;;;;;;;;;;13.70;63.30;;;;;;5067759;28;19936;-63
2023/04/19 08:15:13;;;;;;;;;;;13.90;62.80;;;;;;5065014;28;19932;-65
2023/04/19 08:17:40;;;;;;;;;;;14.10;62.20;;;;;;5065491;28;20035;-64
2023/04/19 08:20:08;;;;;;;;;;;14.20;61.50;;;;;;5069327;28;19972;-64
2023/04/19 08:22:36;;;;;;;;;;;14.20;60.50;;;;;;5065140;28;19958;-64
2023/04/19 08:25:03;;;;;;;;;;;14.20;60.40;;;;;;5067543;28;20338;-64
2023/04/19 08:27:30;;;;;;;;;;;14.10;59.90;;;;;;5065115;28;20440;-64
2023/04/19 08:29:56;;;;;;;;;;;14.20;60.00;;;;;;5067311;28;19996;-64
2023/04/19 08:32:23;;;;;;;;;;;14.20;58.90;;;;;;5064183;28;19931;-63
2023/04/19 08:34:50;;;;;;;;;;;14.10;59.40;;;;;;5064519;28;20387;-63
2023/04/19 08:37:16;;;;;;;;;;;13.90;60.00;;;;;;5071214;28;19933;-62
2023/04/19 08:39:44;;;;;;;;;;;13.90;59.60;;;;;;5071922;28;19970;-63
2023/04/19 08:42:11;;;;;;;;;;;13.90;59.20;;;;;;5067735;28;19932;-64
2023/04/19 08:44:39;;;;;;;;;;;13.90;58.90;;;;;;5067966;28;19932;-63
2023/04/19 08:47:06;;;;;;;;;;;14.10;58.90;;;;;;5069337;28;20015;-64
2023/04/19 08:49:34;;;;;;;;;;;14.10;58.30;;;;;;5062380;28;19924;-64
2023/04/19 08:52:02;;;;;;;;;;;14.20;58.20;;;;;;5066082;28;19933;-64
2023/04/19 08:54:29;;;;;;;;;;;14.40;58.20;;;;;;5068938;28;19932;-65
2023/04/19 08:56:58;;;;;;;;;;;14.60;58.50;;;;;;5067852;28;20384;-65
2023/04/19 08:59:25;;;;;;;;;;;14.60;57.90;;;;;;5062950;28;19949;-64
2023/04/19 09:01:53;;;;;;;;;;;14.60;57.20;;;;;;5068845;28;19933;-64
2023/04/19 09:04:19;;;;;;;;;;;14.70;57.20;;;;;;5067373;28;19940;-64
2023/04/19 09:06:46;;;;;;;;;;;14.90;56.90;;;;;;5064273;28;19932;-63
2023/04/19 09:09:17;;;;;;;;;;;15.00;56.00;;;;;;5061863;28;20299;-63
2023/04/19 09:11:43;;;;;;;;;;;15.00;56.30;;;;;;5070169;28;19976;-64
2023/04/19 09:14:12;;;;;;;;;;;15.00;55.40;;;;;;5071243;28;19974;-63
2023/04/19 09:16:39;;;;;;;;;;;15.00;55.70;;;;;;5070868;28;19931;-63
2023/04/19 09:19:07;;;;;;;;;;;15.00;55.90;;;;;;5070035;28;19924;-63
2023/04/19 09:21:35;;;;;;;;;;;15.00;55.60;;;;;;5070021;28;19925;-63
2023/04/19 09:24:02;;;;;;;;;;;15.20;54.90;;;;;;5069925;28;19942;-64
2023/04/19 09:26:29;;;;;;;;;;;15.30;54.70;;;;;;5067050;28;19944;-64
2023/04/19 09:28:57;;;;;;;;;;;15.40;54.40;;;;;;5069686;28;19924;-64
2023/04/19 09:31:26;;;;;;;;;;;15.40;53.50;;;;;;5069646;28;19936;-63
2023/04/19 09:33:53;;;;;;;;;;;15.40;53.40;;;;;;5067984;28;19928;-64
2023/04/19 09:36:28;;;;;;;;;;;15.50;53.60;;;;;;5070112;28;19933;-64
2023/04/19 09:38:54;;;;;;;;;;;15.50;52.90;;;;;;5066696;28;19924;-64
2023/04/19 09:41:21;;;;;;;;;;;15.50;53.00;;;;;;5067584;28;20206;-63
2023/04/19 09:43:48;;;;;;;;;;;15.50;52.40;;;;;;5068101;28;20272;-64
2023/04/19 09:46:32;;;;;;;;;;;15.50;52.00;;;;;;5067231;28;19933;-64
2023/04/19 09:49:15;;;;;;;;;;;15.60;51.30;;;;;;5069295;28;19928;-64
2023/04/19 09:51:42;;;;;;;;;;;15.70;50.90;;;;;;5070504;28;19935;-63
2023/04/19 09:54:11;;;;;;;;;;;15.70;50.40;;;;;;5066665;28;20617;-64
2023/04/19 09:56:38;;;;;;;;;;;15.80;50.00;;;;;;5068764;28;19928;-63
2023/04/19 09:59:05;;;;;;;;;;;15.70;49.10;;;;;;5067077;28;19929;-65
2023/04/19 10:01:35;;;;;;;;;;;15.80;48.60;;;;;;5069024;28;20023;-63
2023/04/19 10:04:04;;;;;;;;;;;15.80;48.70;;;;;;5069103;28;19925;-63
2023/04/19 10:06:31;;;;;;;;;;;15.80;47.70;;;;;;5069400;28;20028;-64
2023/04/19 10:09:00;;;;;;;;;;;15.90;48.20;;;;;;5067892;28;20022;-64
2023/04/19 10:11:29;;;;;;;;;;;16.00;47.00;;;;;;5045313;28;19928;-63
2023/04/19 10:13:58;;;;;;;;;;;16.10;47.90;;;;;;5067347;28;20343;-63
2023/04/19 10:16:26;;;;;;;;;;;16.20;46.60;;;;;;5068222;28;19931;-63
2023/04/19 10:18:54;;;;;;;;;;;16.30;46.70;;;;;;5070773;28;19932;-63
2023/04/19 10:21:21;;;;;;;;;;;16.30;45.80;;;;;;5067445;28;19932;-63
2023/04/19 10:23:48;;;;;;;;;;;16.40;46.70;;;;;;5063589;28;20311;-63
2023/04/19 10:26:15;;;;;;;;;;;16.40;45.70;;;;;;5067974;28;19959;-64
2023/04/19 10:28:42;;;;;;;;;;;16.50;45.10;;;;;;5065723;28;20287;-64
2023/04/19 10:31:11;;;;;;;;;;;16.60;45.20;;;;;;5067951;28;20387;-63
2023/04/19 10:33:38;;;;;;;;;;;16.60;43.10;;;;;;5068342;28;19929;-65
2023/04/19 10:36:08;;;;;;;;;;;16.60;42.20;;;;;;5068124;28;19929;-63
2023/04/19 10:38:36;;;;;;;;;;;16.50;41.90;;;;;;5051378;28;20363;-63
2023/04/19 10:41:04;;;;;;;;;;;16.40;42.30;;;;;;5066846;28;19936;-62
2023/04/19 10:43:32;;;;;;;;;;;16.60;42.80;;;;;;5068942;28;19924;-64
2023/04/19 10:46:00;;;;;;;;;;;16.60;41.30;;;;;;5067945;28;19933;-64
2023/04/19 10:48:34;;;;;;;;;;;16.70;40.60;;;;;;5070397;28;19925;-63
2023/04/19 10:51:01;;;;;;;;;;;16.70;41.60;;;;;;5063885;28;19929;-64
2023/04/19 10:53:48;;;;;;;;;;;16.70;40.80;;;;;;5069237;28;19924;-64
2023/04/19 10:56:15;;;;;;;;;;;16.80;41.10;;;;;;5065695;28;19970;-63
2023/04/19 10:59:01;;;;;;;;;;;16.80;40.50;;;;;;5066180;28;19929;-63
2023/04/19 11:01:35;;;;;;;;;;;16.90;40.90;;;;;;5065539;28;19954;-64
2023/04/19 11:04:02;;;;;;;;;;;16.90;40.20;;;;;;5065396;28;19951;-64
2023/04/19 11:06:29;;;;;;;;;;;17.00;37.40;;;;;;5051248;28;19924;-65
2023/04/19 11:08:57;;;;;;;;;;;16.80;37.80;;;;;;5065825;28;19924;-64
2023/04/19 11:11:25;;;;;;;;;;;17.00;37.90;;;;;;5068148;28;19935;-64
2023/04/19 11:13:53;;;;;;;;;;;17.00;37.90;;;;;;5039554;28;19952;-63
2023/04/19 11:16:20;;;;;;;;;;;17.00;36.40;;;;;;5064557;28;20011;-65
2023/04/19 11:18:46;;;;;;;;;;;16.90;36.00;;;;;;5068738;28;19925;-67
2023/04/19 11:21:13;;;;;;;;;;;16.80;35.00;;;;;;5067796;28;20020;-66
2023/04/19 11:23:40;;;;;;;;;;;16.80;34.30;;;;;;5067934;28;19970;-63
2023/04/19 11:26:09;;;;;;;;;;;16.80;35.10;;;;;;5063879;28;19931;-63
2023/04/19 11:28:36;;;;;;;;;;;16.80;35.50;;;;;;5065898;28;19928;-62
2023/04/19 11:31:03;;;;;;;;;;;17.00;34.60;;;;;;5062174;28;19929;-64
2023/04/19 11:33:33;;;;;;;;;;;16.90;34.90;;;;;;5065185;28;19931;-65
2023/04/19 11:35:59;;;;;;;;;;;16.90;34.40;;;;;;5071857;28;19929;-64
2023/04/19 11:38:27;;;;;;;;;;;16.90;33.70;;;;;;5069954;28;19994;-65
2023/04/19 11:40:58;;;;;;;;;;;16.90;33.90;;;;;;5069102;28;19932;-64
2023/04/19 11:43:31;;;;;;;;;;;17.00;33.70;;;;;;5068971;28;19931;-66
2023/04/19 11:46:04;;;;;;;;;;;17.00;34.20;;;;;;5069843;28;20411;-66
2023/04/19 11:48:31;;;;;;;;;;;17.10;36.00;;;;;;5069164;28;19970;-66
2023/04/19 11:50:59;;;;;;;;;;;17.10;34.00;;;;;;5066995;28;20454;-65
2023/04/19 11:53:26;;;;;;;;;;;17.00;34.00;;;;;;5073231;28;19925;-64
2023/04/19 11:55:54;;;;;;;;;;;17.10;34.20;;;;;;5076076;28;19928;-65
2023/04/19 11:58:27;;;;;;;;;;;17.20;36.00;;;;;;5075554;28;19924;-65
2023/04/19 12:00:54;;;;;;;;;;;17.30;35.40;;;;;;5073944;28;19928;-65
2023/04/19 12:03:22;;;;;;;;;;;17.30;35.10;;;;;;5077060;28;19925;-65
2023/04/19 12:05:53;;;;;;;;;;;17.20;34.40;;;;;;5074308;28;19931;-66
2023/04/19 12:08:29;;;;;;;;;;;17.20;34.10;;;;;;5073481;28;19947;-67
2023/04/19 12:10:56;;;;;;;;;;;17.10;32.70;;;;;;5074052;28;19951;-64
2023/04/19 12:13:24;;;;;;;;;;;17.00;32.60;;;;;;5074756;28;19928;-66
2023/04/19 12:15:52;;;;;;;;;;;17.10;32.60;;;;;;5071903;28;19924;-66
2023/04/19 12:18:19;;;;;;;;;;;17.00;31.80;;;;;;5067202;28;19924;-65
2023/04/19 12:20:48;;;;;;;;;;;17.00;32.20;;;;;;5070424;28;20015;-66
2023/04/19 12:23:15;;;;;;;;;;;16.90;32.40;;;;;;5070547;28;20033;-65
2023/04/19 12:25:42;;;;;;;;;;;16.90;30.70;;;;;;5064345;28;20414;-65
2023/04/19 12:28:08;;;;;;;;;;;16.80;31.10;;;;;;5071797;28;19925;-66
2023/04/19 12:30:35;;;;;;;;;;;16.70;30.90;;;;;;5066230;28;19979;-65
2023/04/19 12:33:04;;;;;;;;;;;16.70;31.40;;;;;;5068627;28;19924;-66
2023/04/19 12:35:30;;;;;;;;;;;16.70;32.70;;;;;;5070345;28;19932;-66
2023/04/19 12:37:58;;;;;;;;;;;16.70;32.00;;;;;;5069474;28;19928;-66
2023/04/19 12:40:26;;;;;;;;;;;16.70;32.60;;;;;;5067478;28;19947;-64
2023/04/19 12:42:53;;;;;;;;;;;16.60;32.10;;;;;;5068134;28;19933;-64
2023/04/19 12:45:20;;;;;;;;;;;16.60;32.70;;;;;;5068612;28;19935;-65
2023/04/19 12:47:47;;;;;;;;;;;16.60;32.90;;;;;;5066866;28;19924;-66
2023/04/19 12:50:15;;;;;;;;;;;16.60;33.90;;;;;;5069429;28;20333;-66
2023/04/19 12:52:42;;;;;;;;;;;16.60;33.20;;;;;;5067011;28;19936;-66
2023/04/19 12:55:09;;;;;;;;;;;16.60;32.50;;;;;;5066598;28;20408;-66
2023/04/19 12:57:36;;;;;;;;;;;16.50;32.70;;;;;;5058975;28;19928;-64
2023/04/19 13:00:04;;;;;;;;;;;16.40;33.70;;;;;;5064891;28;19932;-64
2023/04/19 13:02:31;;;;;;;;;;;16.50;33.60;;;;;;5064672;28;19932;-66
2023/04/19 13:04:58;;;;;;;;;;;16.30;32.80;;;;;;5066598;28;19925;-64
2023/04/19 13:07:27;;;;;;;;;;;16.40;33.10;;;;;;5064322;28;20570;-66
2023/04/19 13:09:54;;;;;;;;;;;16.40;32.60;;;;;;5067132;28;19936;-64
2023/04/19 13:12:20;;;;;;;;;;;16.20;32.20;;;;;;5064633;28;19935;-67
2023/04/19 13:14:50;;;;;;;;;;;16.10;32.40;;;;;;5064581;28;19932;-65
2023/04/19 13:17:17;;;;;;;;;;;16.10;32.50;;;;;;5067600;28;20338;-66
2023/04/19 13:19:44;;;;;;;;;;;16.10;33.20;;;;;;5068969;28;20019;-64
2023/04/19 13:22:10;;;;;;;;;;;16.20;33.00;;;;;;5069827;28;20027;-66
2023/04/19 13:24:38;;;;;;;;;;;16.10;33.30;;;;;;5068985;28;19924;-64
2023/04/19 13:27:05;;;;;;;;;;;16.10;33.70;;;;;;5068269;28;19950;-65
2023/04/19 13:29:32;;;;;;;;;;;16.10;34.50;;;;;;5063494;28;19931;-65
2023/04/19 13:31:59;;;;;;;;;;;16.10;34.90;;;;;;5063954;28;19929;-65
2023/04/19 13:34:26;;;;;;;;;;;16.00;34.50;;;;;;5045891;28;20019;-67
2023/04/19 13:36:52;;;;;;;;;;;15.90;34.60;;;;;;5065621;28;20399;-67
2023/04/19 13:39:19;;;;;;;;;;;15.80;34.90;;;;;;5069096;28;19931;-66
2023/04/19 13:41:47;;;;;;;;;;;15.90;35.60;;;;;;5066754;28;19970;-65
2023/04/19 13:44:14;;;;;;;;;;;15.90;35.10;;;;;;5068209;28;19934;-66
2023/04/19 13:46:40;;;;;;;;;;;15.90;35.20;;;;;;5068235;28;19924;-67
2023/04/19 13:49:07;;;;;;;;;;;15.90;35.50;;;;;;5067967;28;20030;-64
2023/04/19 13:51:34;;;;;;;;;;;15.90;35.70;;;;;;5069270;28;19936;-66
2023/04/19 13:54:01;;;;;;;;;;;15.90;35.70;;;;;;5066922;28;19968;-66
2023/04/19 13:56:28;;;;;;;;;;;15.90;35.90;;;;;;5068749;28;19924;-66
2023/04/19 13:58:57;;;;;;;;;;;15.90;36.00;;;;;;5060855;28;19928;-65
2023/04/19 14:01:23;;;;;;;;;;;15.90;36.10;;;;;;5064688;28;20054;-67
2023/04/19 14:03:50;;;;;;;;;;;16.00;35.90;;;;;;5067940;28;20003;-65
2023/04/19 14:06:17;;;;;;;;;;;15.90;36.50;;;;;;5066124;28;19932;-64
2023/04/19 14:08:44;;;;;;;;;;;15.90;36.80;;;;;;5065682;28;20375;-66
2023/04/19 14:11:10;;;;;;;;;;;16.00;36.70;;;;;;5064572;28;19971;-67
2023/04/19 14:13:37;;;;;;;;;;;15.90;36.60;;;;;;5066223;28;19989;-65
2023/04/19 14:16:06;;;;;;;;;;;16.00;36.30;;;;;;5066160;28;20306;-64
2023/04/19 14:18:32;;;;;;;;;;;15.90;37.00;;;;;;5065684;28;19932;-65
2023/04/19 14:20:59;;;;;;;;;;;15.90;37.40;;;;;;5066169;28;20027;-66